sensor_id;sensor_type;location;lat;lon;timestamp;P1;durP1;ratioP1;P2;durP2;ratioP2
70342;SDS011;57767;42.068;24.752;2023-10-31T00:00:17;7.78;;;4.65;;
70342;SDS011;57767;42.068;24.752;2023-10-31T00:01:19;9.10;;;5.10;;
70342;SDS011;57767;42.068;24.752;2023-10-31T00:02:21;9.80;;;4.65;;
70342;SDS011;57767;42.068;24.752;2023-10-31T00:03:23;10.45;;;4.82;;
70342;SDS011;57767;42.068;24.752;2023-10-31T00:04:25;10.10;;;4.85;;
70342;SDS011;57767;42.068;24.752;2023-10-31T00:05:27;10.43;;;5.53;;
70342;SDS011;57767;42.068;24.752;2023-10-31T00:06:28;9.80;;;4.95;;
70342;SDS011;57767;42.068;24.752;2023-10-31T00:07:30;7.50;;;4.72;;
70342;SDS011;57767;42.068;24.752;2023-10-31T00:08:32;12.32;;;4.93;;
70342;SDS011;57767;42.068;24.752;2023-10-31T00:09:33;7.72;;;4.85;;
70342;SDS011;57767;42.068;24.752;2023-10-31T00:10:35;10.52;;;4.38;;
70342;SDS011;57767;42.068;24.752;2023-10-31T00:11:36;11.50;;;4.57;;
70342;SDS011;57767;42.068;24.752;2023-10-31T00:12:38;10.13;;;4.50;;
70342;SDS011;57767;42.068;24.752;2023-10-31T00:13:41;10.90;;;5.05;;
70342;SDS011;57767;42.068;24.752;2023-10-31T00:14:43;11.15;;;5.32;;
70342;SDS011;57767;42.068;24.752;2023-10-31T00:15:45;8.73;;;4.90;;
70342;SDS011;57767;42.068;24.752;2023-10-31T00:16:47;8.05;;;4.80;;
70342;SDS011;57767;42.068;24.752;2023-10-31T00:17:50;9.68;;;4.93;;
70342;SDS011;57767;42.068;24.752;2023-10-31T00:18:51;10.27;;;5.22;;
70342;SDS011;57767;42.068;24.752;2023-10-31T00:19:53;13.55;;;4.95;;
70342;SDS011;57767;42.068;24.752;2023-10-31T00:20:54;8.07;;;4.40;;
70342;SDS011;57767;42.068;24.752;2023-10-31T00:21:56;7.88;;;4.75;;
70342;SDS011;57767;42.068;24.752;2023-10-31T00:22:58;8.93;;;4.53;;
70342;SDS011;57767;42.068;24.752;2023-10-31T00:23:59;8.48;;;4.72;;
70342;SDS011;57767;42.068;24.752;2023-10-31T00:25:01;11.25;;;4.82;;
70342;SDS011;57767;42.068;24.752;2023-10-31T00:26:03;7.93;;;5.35;;
70342;SDS011;57767;42.068;24.752;2023-10-31T00:27:04;10.27;;;4.90;;
70342;SDS011;57767;42.068;24.752;2023-10-31T00:28:06;8.80;;;4.85;;
70342;SDS011;57767;42.068;24.752;2023-10-31T00:29:08;11.57;;;5.25;;
70342;SDS011;57767;42.068;24.752;2023-10-31T00:30:10;10.40;;;4.75;;
70342;SDS011;57767;42.068;24.752;2023-10-31T00:31:12;12.05;;;4.88;;
70342;SDS011;57767;42.068;24.752;2023-10-31T00:32:14;7.80;;;4.82;;
70342;SDS011;57767;42.068;24.752;2023-10-31T00:33:16;7.65;;;4.85;;
70342;SDS011;57767;42.068;24.752;2023-10-31T00:34:18;9.73;;;4.85;;
70342;SDS011;57767;42.068;24.752;2023-10-31T00:35:19;7.35;;;4.78;;
70342;SDS011;57767;42.068;24.752;2023-10-31T00:36:21;9.63;;;5.10;;
70342;SDS011;57767;42.068;24.752;2023-10-31T00:37:23;10.25;;;4.80;;
70342;SDS011;57767;42.068;24.752;2023-10-31T00:38:24;8.80;;;4.55;;
70342;SDS011;57767;42.068;24.752;2023-10-31T00:39:26;8.80;;;4.70;;
70342;SDS011;57767;42.068;24.752;2023-10-31T00:40:27;8.30;;;4.80;;
70342;SDS011;57767;42.068;24.752;2023-10-31T00:41:30;8.95;;;5.10;;
70342;SDS011;57767;42.068;24.752;2023-10-31T00:42:31;11.60;;;4.90;;
70342;SDS011;57767;42.068;24.752;2023-10-31T00:43:33;8.07;;;5.00;;
70342;SDS011;57767;42.068;24.752;2023-10-31T00:44:35;9.35;;;5.22;;
70342;SDS011;57767;42.068;24.752;2023-10-31T00:45:36;9.73;;;4.70;;
70342;SDS011;57767;42.068;24.752;2023-10-31T00:46:38;10.63;;;4.88;;
70342;SDS011;57767;42.068;24.752;2023-10-31T00:47:40;10.23;;;4.65;;
70342;SDS011;57767;42.068;24.752;2023-10-31T00:48:42;9.30;;;4.80;;
70342;SDS011;57767;42.068;24.752;2023-10-31T00:49:43;9.65;;;5.05;;
70342;SDS011;57767;42.068;24.752;2023-10-31T00:50:45;9.00;;;4.93;;
70342;SDS011;57767;42.068;24.752;2023-10-31T00:51:47;10.88;;;5.25;;
70342;SDS011;57767;42.068;24.752;2023-10-31T00:52:48;9.02;;;4.88;;
70342;SDS011;57767;42.068;24.752;2023-10-31T00:53:50;11.55;;;5.10;;
70342;SDS011;57767;42.068;24.752;2023-10-31T00:54:52;7.40;;;4.78;;
70342;SDS011;57767;42.068;24.752;2023-10-31T00:55:53;8.70;;;4.90;;
70342;SDS011;57767;42.068;24.752;2023-10-31T00:56:55;14.27;;;5.00;;
70342;SDS011;57767;42.068;24.752;2023-10-31T00:57:56;8.55;;;4.80;;
70342;SDS011;57767;42.068;24.752;2023-10-31T00:58:58;9.55;;;5.43;;
70342;SDS011;57767;42.068;24.752;2023-10-31T01:00:00;11.05;;;4.68;;
70342;SDS011;57767;42.068;24.752;2023-10-31T01:01:02;7.65;;;4.70;;
70342;SDS011;57767;42.068;24.752;2023-10-31T01:02:03;9.35;;;5.00;;
70342;SDS011;57767;42.068;24.752;2023-10-31T01:03:05;8.90;;;4.75;;
70342;SDS011;57767;42.068;24.752;2023-10-31T01:04:07;10.88;;;5.18;;
70342;SDS011;57767;42.068;24.752;2023-10-31T01:05:10;8.98;;;4.68;;
70342;SDS011;57767;42.068;24.752;2023-10-31T01:06:12;8.43;;;4.43;;
70342;SDS011;57767;42.068;24.752;2023-10-31T01:07:17;8.93;;;5.00;;
70342;SDS011;57767;42.068;24.752;2023-10-31T01:08:18;9.23;;;4.75;;
70342;SDS011;57767;42.068;24.752;2023-10-31T01:09:20;10.43;;;4.68;;
70342;SDS011;57767;42.068;24.752;2023-10-31T01:10:22;8.48;;;4.72;;
70342;SDS011;57767;42.068;24.752;2023-10-31T01:11:23;9.35;;;4.65;;
70342;SDS011;57767;42.068;24.752;2023-10-31T01:12:25;10.63;;;5.22;;
70342;SDS011;57767;42.068;24.752;2023-10-31T01:13:29;8.57;;;4.80;;
70342;SDS011;57767;42.068;24.752;2023-10-31T01:14:31;9.68;;;4.95;;
70342;SDS011;57767;42.068;24.752;2023-10-31T01:15:33;9.73;;;4.97;;
70342;SDS011;57767;42.068;24.752;2023-10-31T01:16:34;10.63;;;5.10;;
70342;SDS011;57767;42.068;24.752;2023-10-31T01:17:36;10.57;;;5.35;;
70342;SDS011;57767;42.068;24.752;2023-10-31T01:18:38;7.25;;;4.72;;
70342;SDS011;57767;42.068;24.752;2023-10-31T01:19:39;7.97;;;4.97;;
70342;SDS011;57767;42.068;24.752;2023-10-31T01:20:41;9.93;;;4.65;;
70342;SDS011;57767;42.068;24.752;2023-10-31T01:21:43;9.75;;;5.03;;
70342;SDS011;57767;42.068;24.752;2023-10-31T01:22:44;8.00;;;4.68;;
70342;SDS011;57767;42.068;24.752;2023-10-31T01:23:46;10.35;;;4.93;;
70342;SDS011;57767;42.068;24.752;2023-10-31T01:24:48;9.20;;;4.75;;
70342;SDS011;57767;42.068;24.752;2023-10-31T01:25:49;9.27;;;4.57;;
70342;SDS011;57767;42.068;24.752;2023-10-31T01:26:51;7.60;;;4.68;;
70342;SDS011;57767;42.068;24.752;2023-10-31T01:27:52;13.35;;;5.95;;
70342;SDS011;57767;42.068;24.752;2023-10-31T01:28:54;10.68;;;5.15;;
70342;SDS011;57767;42.068;24.752;2023-10-31T01:29:56;9.48;;;5.88;;
70342;SDS011;57767;42.068;24.752;2023-10-31T01:30:58;11.93;;;5.60;;
70342;SDS011;57767;42.068;24.752;2023-10-31T01:31:59;10.90;;;5.93;;
70342;SDS011;57767;42.068;24.752;2023-10-31T01:33:07;7.22;;;5.00;;
70342;SDS011;57767;42.068;24.752;2023-10-31T01:34:09;7.90;;;4.57;;
70342;SDS011;57767;42.068;24.752;2023-10-31T01:35:11;10.40;;;5.63;;
70342;SDS011;57767;42.068;24.752;2023-10-31T01:36:13;8.18;;;5.50;;
70342;SDS011;57767;42.068;24.752;2023-10-31T01:37:15;10.55;;;5.60;;
70342;SDS011;57767;42.068;24.752;2023-10-31T01:38:18;11.63;;;5.30;;
70342;SDS011;57767;42.068;24.752;2023-10-31T01:39:20;7.60;;;4.70;;
70342;SDS011;57767;42.068;24.752;2023-10-31T01:40:21;8.85;;;5.53;;
70342;SDS011;57767;42.068;24.752;2023-10-31T01:41:23;11.73;;;5.65;;
70342;SDS011;57767;42.068;24.752;2023-10-31T01:42:25;7.65;;;4.97;;
70342;SDS011;57767;42.068;24.752;2023-10-31T01:43:30;9.05;;;5.25;;
70342;SDS011;57767;42.068;24.752;2023-10-31T01:44:33;7.38;;;5.07;;
70342;SDS011;57767;42.068;24.752;2023-10-31T01:45:35;8.70;;;5.10;;
70342;SDS011;57767;42.068;24.752;2023-10-31T01:46:36;7.88;;;5.38;;
70342;SDS011;57767;42.068;24.752;2023-10-31T01:47:38;11.70;;;5.30;;
70342;SDS011;57767;42.068;24.752;2023-10-31T01:48:40;8.15;;;4.97;;
70342;SDS011;57767;42.068;24.752;2023-10-31T01:49:41;11.73;;;5.20;;
70342;SDS011;57767;42.068;24.752;2023-10-31T01:50:44;9.63;;;5.20;;
70342;SDS011;57767;42.068;24.752;2023-10-31T01:51:45;16.08;;;5.25;;
70342;SDS011;57767;42.068;24.752;2023-10-31T01:52:47;9.93;;;5.80;;
70342;SDS011;57767;42.068;24.752;2023-10-31T01:53:50;7.47;;;4.63;;
70342;SDS011;57767;42.068;24.752;2023-10-31T01:54:51;12.10;;;5.07;;
70342;SDS011;57767;42.068;24.752;2023-10-31T01:55:53;7.53;;;5.18;;
70342;SDS011;57767;42.068;24.752;2023-10-31T01:56:57;9.77;;;4.97;;
70342;SDS011;57767;42.068;24.752;2023-10-31T01:57:59;9.15;;;4.85;;
70342;SDS011;57767;42.068;24.752;2023-10-31T01:59:01;12.88;;;5.50;;
70342;SDS011;57767;42.068;24.752;2023-10-31T02:00:04;10.57;;;5.20;;
70342;SDS011;57767;42.068;24.752;2023-10-31T02:01:06;9.40;;;4.97;;
70342;SDS011;57767;42.068;24.752;2023-10-31T02:02:08;9.15;;;5.22;;
70342;SDS011;57767;42.068;24.752;2023-10-31T02:03:10;6.43;;;4.47;;
70342;SDS011;57767;42.068;24.752;2023-10-31T02:04:12;11.90;;;5.72;;
70342;SDS011;57767;42.068;24.752;2023-10-31T02:05:13;11.77;;;4.75;;
70342;SDS011;57767;42.068;24.752;2023-10-31T02:06:17;6.50;;;5.20;;
70342;SDS011;57767;42.068;24.752;2023-10-31T02:07:18;11.45;;;5.82;;
70342;SDS011;57767;42.068;24.752;2023-10-31T02:08:20;11.77;;;5.47;;
70342;SDS011;57767;42.068;24.752;2023-10-31T02:09:22;8.13;;;5.18;;
70342;SDS011;57767;42.068;24.752;2023-10-31T02:10:25;7.97;;;4.43;;
70342;SDS011;57767;42.068;24.752;2023-10-31T02:11:27;10.15;;;5.28;;
70342;SDS011;57767;42.068;24.752;2023-10-31T02:12:35;9.38;;;5.78;;
70342;SDS011;57767;42.068;24.752;2023-10-31T02:13:38;8.95;;;5.00;;
70342;SDS011;57767;42.068;24.752;2023-10-31T02:14:40;7.80;;;5.10;;
70342;SDS011;57767;42.068;24.752;2023-10-31T02:15:41;10.38;;;5.25;;
70342;SDS011;57767;42.068;24.752;2023-10-31T02:16:43;9.20;;;5.03;;
70342;SDS011;57767;42.068;24.752;2023-10-31T02:17:45;7.88;;;4.90;;
70342;SDS011;57767;42.068;24.752;2023-10-31T02:18:47;8.35;;;5.35;;
70342;SDS011;57767;42.068;24.752;2023-10-31T02:19:48;12.63;;;5.45;;
70342;SDS011;57767;42.068;24.752;2023-10-31T02:20:50;10.85;;;5.00;;
70342;SDS011;57767;42.068;24.752;2023-10-31T02:21:52;7.40;;;4.47;;
70342;SDS011;57767;42.068;24.752;2023-10-31T02:22:53;9.30;;;4.97;;
70342;SDS011;57767;42.068;24.752;2023-10-31T02:23:56;11.60;;;5.35;;
70342;SDS011;57767;42.068;24.752;2023-10-31T02:24:59;9.60;;;4.82;;
70342;SDS011;57767;42.068;24.752;2023-10-31T02:26:01;12.50;;;5.10;;
70342;SDS011;57767;42.068;24.752;2023-10-31T02:27:04;9.38;;;4.80;;
70342;SDS011;57767;42.068;24.752;2023-10-31T02:28:06;9.77;;;5.20;;
70342;SDS011;57767;42.068;24.752;2023-10-31T02:29:08;9.60;;;4.75;;
70342;SDS011;57767;42.068;24.752;2023-10-31T02:30:10;8.70;;;4.97;;
70342;SDS011;57767;42.068;24.752;2023-10-31T02:31:12;7.22;;;4.57;;
70342;SDS011;57767;42.068;24.752;2023-10-31T02:32:13;9.02;;;5.20;;
70342;SDS011;57767;42.068;24.752;2023-10-31T02:33:15;7.32;;;5.30;;
70342;SDS011;57767;42.068;24.752;2023-10-31T02:34:17;9.32;;;5.13;;
70342;SDS011;57767;42.068;24.752;2023-10-31T02:35:18;8.27;;;4.60;;
70342;SDS011;57767;42.068;24.752;2023-10-31T02:36:20;9.93;;;4.63;;
70342;SDS011;57767;42.068;24.752;2023-10-31T02:37:22;9.65;;;4.85;;
70342;SDS011;57767;42.068;24.752;2023-10-31T02:38:24;9.50;;;5.70;;
70342;SDS011;57767;42.068;24.752;2023-10-31T02:39:26;8.65;;;4.82;;
70342;SDS011;57767;42.068;24.752;2023-10-31T02:40:27;6.63;;;5.00;;
70342;SDS011;57767;42.068;24.752;2023-10-31T02:41:29;8.38;;;5.00;;
70342;SDS011;57767;42.068;24.752;2023-10-31T02:42:31;11.45;;;5.35;;
70342;SDS011;57767;42.068;24.752;2023-10-31T02:43:32;8.90;;;4.75;;
70342;SDS011;57767;42.068;24.752;2023-10-31T02:44:35;7.97;;;4.78;;
70342;SDS011;57767;42.068;24.752;2023-10-31T02:45:36;9.38;;;4.97;;
70342;SDS011;57767;42.068;24.752;2023-10-31T02:46:38;7.68;;;4.68;;
70342;SDS011;57767;42.068;24.752;2023-10-31T02:47:40;9.57;;;4.95;;
70342;SDS011;57767;42.068;24.752;2023-10-31T02:48:41;8.75;;;4.75;;
70342;SDS011;57767;42.068;24.752;2023-10-31T02:49:43;9.00;;;5.00;;
70342;SDS011;57767;42.068;24.752;2023-10-31T02:50:45;10.75;;;5.50;;
70342;SDS011;57767;42.068;24.752;2023-10-31T02:51:47;11.00;;;5.50;;
70342;SDS011;57767;42.068;24.752;2023-10-31T02:52:48;8.77;;;4.93;;
70342;SDS011;57767;42.068;24.752;2023-10-31T02:53:50;6.93;;;4.93;;
70342;SDS011;57767;42.068;24.752;2023-10-31T02:54:52;9.55;;;5.45;;
70342;SDS011;57767;42.068;24.752;2023-10-31T02:55:53;8.48;;;5.20;;
70342;SDS011;57767;42.068;24.752;2023-10-31T02:56:55;9.57;;;5.18;;
70342;SDS011;57767;42.068;24.752;2023-10-31T02:57:57;8.50;;;5.05;;
70342;SDS011;57767;42.068;24.752;2023-10-31T02:58:58;10.73;;;5.22;;
70342;SDS011;57767;42.068;24.752;2023-10-31T03:00:00;8.38;;;5.60;;
70342;SDS011;57767;42.068;24.752;2023-10-31T03:01:02;11.75;;;5.68;;
70342;SDS011;57767;42.068;24.752;2023-10-31T03:02:04;10.02;;;5.25;;
70342;SDS011;57767;42.068;24.752;2023-10-31T03:03:06;8.45;;;5.10;;
70342;SDS011;57767;42.068;24.752;2023-10-31T03:04:07;10.77;;;5.22;;
70342;SDS011;57767;42.068;24.752;2023-10-31T03:05:09;10.63;;;5.25;;
70342;SDS011;57767;42.068;24.752;2023-10-31T03:06:11;11.70;;;5.55;;
70342;SDS011;57767;42.068;24.752;2023-10-31T03:07:12;13.63;;;5.30;;
70342;SDS011;57767;42.068;24.752;2023-10-31T03:08:14;7.90;;;5.50;;
70342;SDS011;57767;42.068;24.752;2023-10-31T03:09:16;14.25;;;5.53;;
70342;SDS011;57767;42.068;24.752;2023-10-31T03:10:18;7.20;;;5.22;;
70342;SDS011;57767;42.068;24.752;2023-10-31T03:11:21;7.53;;;5.10;;
70342;SDS011;57767;42.068;24.752;2023-10-31T03:12:26;8.90;;;5.05;;
70342;SDS011;57767;42.068;24.752;2023-10-31T03:13:29;10.77;;;5.10;;
70342;SDS011;57767;42.068;24.752;2023-10-31T03:14:31;6.93;;;5.00;;
70342;SDS011;57767;42.068;24.752;2023-10-31T03:15:33;10.90;;;4.78;;
70342;SDS011;57767;42.068;24.752;2023-10-31T03:16:34;12.48;;;5.30;;
70342;SDS011;57767;42.068;24.752;2023-10-31T03:17:36;8.55;;;4.68;;
70342;SDS011;57767;42.068;24.752;2023-10-31T03:18:38;14.15;;;4.90;;
70342;SDS011;57767;42.068;24.752;2023-10-31T03:19:39;9.15;;;4.88;;
70342;SDS011;57767;42.068;24.752;2023-10-31T03:20:44;8.52;;;5.55;;
70342;SDS011;57767;42.068;24.752;2023-10-31T03:21:49;9.93;;;4.60;;
70342;SDS011;57767;42.068;24.752;2023-10-31T03:22:51;10.35;;;5.45;;
70342;SDS011;57767;42.068;24.752;2023-10-31T03:23:53;8.35;;;4.97;;
70342;SDS011;57767;42.068;24.752;2023-10-31T03:24:56;9.02;;;5.10;;
70342;SDS011;57767;42.068;24.752;2023-10-31T03:25:58;10.23;;;5.80;;
70342;SDS011;57767;42.068;24.752;2023-10-31T03:27:00;9.85;;;5.30;;
70342;SDS011;57767;42.068;24.752;2023-10-31T03:28:02;9.68;;;5.60;;
70342;SDS011;57767;42.068;24.752;2023-10-31T03:29:03;8.73;;;5.38;;
70342;SDS011;57767;42.068;24.752;2023-10-31T03:30:05;9.40;;;5.00;;
70342;SDS011;57767;42.068;24.752;2023-10-31T03:31:07;8.55;;;4.50;;
70342;SDS011;57767;42.068;24.752;2023-10-31T03:32:11;9.68;;;4.82;;
70342;SDS011;57767;42.068;24.752;2023-10-31T03:33:14;8.27;;;5.20;;
70342;SDS011;57767;42.068;24.752;2023-10-31T03:34:16;8.98;;;5.20;;
70342;SDS011;57767;42.068;24.752;2023-10-31T03:35:17;6.47;;;4.57;;
70342;SDS011;57767;42.068;24.752;2023-10-31T03:36:19;6.40;;;4.80;;
70342;SDS011;57767;42.068;24.752;2023-10-31T03:37:21;9.57;;;5.10;;
70342;SDS011;57767;42.068;24.752;2023-10-31T03:38:23;10.43;;;4.47;;
70342;SDS011;57767;42.068;24.752;2023-10-31T03:39:24;8.93;;;4.55;;
70342;SDS011;57767;42.068;24.752;2023-10-31T03:40:26;9.27;;;5.35;;
70342;SDS011;57767;42.068;24.752;2023-10-31T03:41:28;11.85;;;4.82;;
70342;SDS011;57767;42.068;24.752;2023-10-31T03:42:29;11.10;;;5.00;;
70342;SDS011;57767;42.068;24.752;2023-10-31T03:43:31;10.15;;;4.43;;
70342;SDS011;57767;42.068;24.752;2023-10-31T03:44:33;7.68;;;4.38;;
70342;SDS011;57767;42.068;24.752;2023-10-31T03:45:34;7.03;;;4.75;;
70342;SDS011;57767;42.068;24.752;2023-10-31T03:46:36;9.20;;;4.70;;
70342;SDS011;57767;42.068;24.752;2023-10-31T03:47:37;11.82;;;4.70;;
70342;SDS011;57767;42.068;24.752;2023-10-31T03:48:39;7.75;;;4.53;;
70342;SDS011;57767;42.068;24.752;2023-10-31T03:49:41;11.63;;;4.72;;
70342;SDS011;57767;42.068;24.752;2023-10-31T03:50:42;10.43;;;5.00;;
70342;SDS011;57767;42.068;24.752;2023-10-31T03:51:44;12.80;;;5.18;;
70342;SDS011;57767;42.068;24.752;2023-10-31T03:52:46;7.93;;;4.55;;
70342;SDS011;57767;42.068;24.752;2023-10-31T03:53:47;9.63;;;4.82;;
70342;SDS011;57767;42.068;24.752;2023-10-31T03:54:49;7.60;;;5.10;;
70342;SDS011;57767;42.068;24.752;2023-10-31T03:55:51;8.95;;;5.05;;
70342;SDS011;57767;42.068;24.752;2023-10-31T03:56:52;11.23;;;5.82;;
70342;SDS011;57767;42.068;24.752;2023-10-31T03:57:54;9.90;;;5.30;;
70342;SDS011;57767;42.068;24.752;2023-10-31T03:58:55;12.25;;;5.13;;
70342;SDS011;57767;42.068;24.752;2023-10-31T03:59:57;9.50;;;5.38;;
70342;SDS011;57767;42.068;24.752;2023-10-31T04:00:59;10.48;;;5.53;;
70342;SDS011;57767;42.068;24.752;2023-10-31T04:02:00;10.13;;;5.55;;
70342;SDS011;57767;42.068;24.752;2023-10-31T04:03:02;10.43;;;5.45;;
70342;SDS011;57767;42.068;24.752;2023-10-31T04:04:04;8.00;;;4.90;;
70342;SDS011;57767;42.068;24.752;2023-10-31T04:05:06;14.65;;;5.70;;
70342;SDS011;57767;42.068;24.752;2023-10-31T04:06:08;11.07;;;5.40;;
70342;SDS011;57767;42.068;24.752;2023-10-31T04:07:10;12.20;;;5.10;;
70342;SDS011;57767;42.068;24.752;2023-10-31T04:08:11;12.38;;;5.50;;
70342;SDS011;57767;42.068;24.752;2023-10-31T04:09:13;11.63;;;5.22;;
70342;SDS011;57767;42.068;24.752;2023-10-31T04:10:15;11.52;;;4.82;;
70342;SDS011;57767;42.068;24.752;2023-10-31T04:11:19;12.15;;;4.95;;
70342;SDS011;57767;42.068;24.752;2023-10-31T04:12:20;8.60;;;5.28;;
70342;SDS011;57767;42.068;24.752;2023-10-31T04:13:22;10.85;;;5.25;;
70342;SDS011;57767;42.068;24.752;2023-10-31T04:14:23;7.65;;;5.63;;
70342;SDS011;57767;42.068;24.752;2023-10-31T04:15:25;9.35;;;5.45;;
70342;SDS011;57767;42.068;24.752;2023-10-31T04:16:27;11.68;;;5.40;;
70342;SDS011;57767;42.068;24.752;2023-10-31T04:17:28;11.10;;;5.65;;
70342;SDS011;57767;42.068;24.752;2023-10-31T04:18:30;10.45;;;5.68;;
70342;SDS011;57767;42.068;24.752;2023-10-31T04:19:32;9.25;;;5.85;;
70342;SDS011;57767;42.068;24.752;2023-10-31T04:20:33;11.10;;;6.00;;
70342;SDS011;57767;42.068;24.752;2023-10-31T04:21:35;10.13;;;5.95;;
70342;SDS011;57767;42.068;24.752;2023-10-31T04:22:38;10.05;;;5.95;;
70342;SDS011;57767;42.068;24.752;2023-10-31T04:23:39;10.32;;;6.13;;
70342;SDS011;57767;42.068;24.752;2023-10-31T04:24:41;8.90;;;5.88;;
70342;SDS011;57767;42.068;24.752;2023-10-31T04:25:43;14.32;;;6.20;;
70342;SDS011;57767;42.068;24.752;2023-10-31T04:26:44;12.00;;;6.15;;
70342;SDS011;57767;42.068;24.752;2023-10-31T04:27:46;11.98;;;5.65;;
70342;SDS011;57767;42.068;24.752;2023-10-31T04:28:48;15.82;;;6.35;;
70342;SDS011;57767;42.068;24.752;2023-10-31T04:29:49;11.38;;;6.30;;
70342;SDS011;57767;42.068;24.752;2023-10-31T04:30:51;10.00;;;5.22;;
70342;SDS011;57767;42.068;24.752;2023-10-31T04:31:52;9.25;;;5.05;;
70342;SDS011;57767;42.068;24.752;2023-10-31T04:32:54;12.15;;;5.28;;
70342;SDS011;57767;42.068;24.752;2023-10-31T04:33:56;9.27;;;5.28;;
70342;SDS011;57767;42.068;24.752;2023-10-31T04:34:58;12.98;;;6.15;;
70342;SDS011;57767;42.068;24.752;2023-10-31T04:35:59;10.48;;;6.00;;
70342;SDS011;57767;42.068;24.752;2023-10-31T04:37:03;10.80;;;5.60;;
70342;SDS011;57767;42.068;24.752;2023-10-31T04:38:05;9.55;;;5.95;;
70342;SDS011;57767;42.068;24.752;2023-10-31T04:39:07;7.50;;;5.28;;
70342;SDS011;57767;42.068;24.752;2023-10-31T04:40:09;9.68;;;5.70;;
70342;SDS011;57767;42.068;24.752;2023-10-31T04:41:11;8.77;;;5.10;;
70342;SDS011;57767;42.068;24.752;2023-10-31T04:42:13;9.20;;;5.25;;
70342;SDS011;57767;42.068;24.752;2023-10-31T04:43:14;11.18;;;5.57;;
70342;SDS011;57767;42.068;24.752;2023-10-31T04:44:16;12.15;;;6.00;;
70342;SDS011;57767;42.068;24.752;2023-10-31T04:45:18;12.02;;;5.57;;
70342;SDS011;57767;42.068;24.752;2023-10-31T04:46:20;12.52;;;5.22;;
70342;SDS011;57767;42.068;24.752;2023-10-31T04:47:21;13.07;;;5.50;;
70342;SDS011;57767;42.068;24.752;2023-10-31T04:48:23;10.57;;;5.00;;
70342;SDS011;57767;42.068;24.752;2023-10-31T04:49:25;9.68;;;5.30;;
70342;SDS011;57767;42.068;24.752;2023-10-31T04:50:27;10.35;;;5.45;;
70342;SDS011;57767;42.068;24.752;2023-10-31T04:51:32;10.73;;;5.15;;
70342;SDS011;57767;42.068;24.752;2023-10-31T04:52:35;7.78;;;5.75;;
70342;SDS011;57767;42.068;24.752;2023-10-31T04:53:36;10.93;;;5.65;;
70342;SDS011;57767;42.068;24.752;2023-10-31T04:54:39;10.88;;;5.10;;
70342;SDS011;57767;42.068;24.752;2023-10-31T04:55:41;12.18;;;5.30;;
70342;SDS011;57767;42.068;24.752;2023-10-31T04:56:43;8.80;;;5.15;;
70342;SDS011;57767;42.068;24.752;2023-10-31T04:57:44;7.35;;;5.13;;
70342;SDS011;57767;42.068;24.752;2023-10-31T04:58:46;11.07;;;5.07;;
70342;SDS011;57767;42.068;24.752;2023-10-31T04:59:48;12.73;;;5.97;;
70342;SDS011;57767;42.068;24.752;2023-10-31T05:00:49;13.68;;;6.03;;
70342;SDS011;57767;42.068;24.752;2023-10-31T05:01:51;8.48;;;5.38;;
70342;SDS011;57767;42.068;24.752;2023-10-31T05:02:53;10.50;;;5.95;;
70342;SDS011;57767;42.068;24.752;2023-10-31T05:03:55;10.38;;;5.65;;
70342;SDS011;57767;42.068;24.752;2023-10-31T05:05:11;11.23;;;5.35;;
70342;SDS011;57767;42.068;24.752;2023-10-31T05:06:13;10.73;;;5.35;;
70342;SDS011;57767;42.068;24.752;2023-10-31T05:07:14;11.85;;;6.05;;
70342;SDS011;57767;42.068;24.752;2023-10-31T05:08:16;13.93;;;5.75;;
70342;SDS011;57767;42.068;24.752;2023-10-31T05:09:18;10.77;;;5.78;;
70342;SDS011;57767;42.068;24.752;2023-10-31T05:10:21;14.48;;;6.55;;
70342;SDS011;57767;42.068;24.752;2023-10-31T05:11:24;22.63;;;7.10;;
70342;SDS011;57767;42.068;24.752;2023-10-31T05:12:26;9.20;;;5.47;;
70342;SDS011;57767;42.068;24.752;2023-10-31T05:13:27;15.70;;;6.30;;
70342;SDS011;57767;42.068;24.752;2023-10-31T05:14:29;16.70;;;5.35;;
70342;SDS011;57767;42.068;24.752;2023-10-31T05:15:31;10.18;;;6.57;;
70342;SDS011;57767;42.068;24.752;2023-10-31T05:16:38;11.07;;;6.43;;
70342;SDS011;57767;42.068;24.752;2023-10-31T05:17:49;8.15;;;5.72;;
70342;SDS011;57767;42.068;24.752;2023-10-31T05:18:50;14.85;;;6.40;;
70342;SDS011;57767;42.068;24.752;2023-10-31T05:19:52;12.18;;;6.05;;
70342;SDS011;57767;42.068;24.752;2023-10-31T05:20:54;15.95;;;7.07;;
70342;SDS011;57767;42.068;24.752;2023-10-31T05:21:55;14.07;;;6.47;;
70342;SDS011;57767;42.068;24.752;2023-10-31T05:22:57;13.85;;;7.10;;
70342;SDS011;57767;42.068;24.752;2023-10-31T05:23:58;15.80;;;7.00;;
70342;SDS011;57767;42.068;24.752;2023-10-31T05:25:00;15.25;;;6.78;;
70342;SDS011;57767;42.068;24.752;2023-10-31T05:26:04;11.98;;;7.40;;
70342;SDS011;57767;42.068;24.752;2023-10-31T05:27:06;10.63;;;7.05;;
70342;SDS011;57767;42.068;24.752;2023-10-31T05:28:09;14.10;;;7.30;;
70342;SDS011;57767;42.068;24.752;2023-10-31T05:29:11;13.80;;;7.25;;
70342;SDS011;57767;42.068;24.752;2023-10-31T05:30:13;16.73;;;7.30;;
70342;SDS011;57767;42.068;24.752;2023-10-31T05:31:15;10.77;;;6.90;;
70342;SDS011;57767;42.068;24.752;2023-10-31T05:32:17;18.10;;;7.75;;
70342;SDS011;57767;42.068;24.752;2023-10-31T05:33:18;15.75;;;7.93;;
70342;SDS011;57767;42.068;24.752;2023-10-31T05:34:20;17.27;;;7.95;;
70342;SDS011;57767;42.068;24.752;2023-10-31T05:35:22;14.68;;;7.35;;
70342;SDS011;57767;42.068;24.752;2023-10-31T05:36:24;16.63;;;7.60;;
70342;SDS011;57767;42.068;24.752;2023-10-31T05:37:26;17.10;;;7.63;;
70342;SDS011;57767;42.068;24.752;2023-10-31T05:38:28;14.05;;;7.53;;
70342;SDS011;57767;42.068;24.752;2023-10-31T05:39:30;13.07;;;7.57;;
70342;SDS011;57767;42.068;24.752;2023-10-31T05:40:31;12.75;;;7.35;;
70342;SDS011;57767;42.068;24.752;2023-10-31T05:41:36;13.40;;;7.80;;
70342;SDS011;57767;42.068;24.752;2023-10-31T05:42:38;14.45;;;7.65;;
70342;SDS011;57767;42.068;24.752;2023-10-31T05:43:40;12.18;;;7.47;;
70342;SDS011;57767;42.068;24.752;2023-10-31T05:44:42;14.35;;;7.00;;
70342;SDS011;57767;42.068;24.752;2023-10-31T05:45:45;14.30;;;7.07;;
70342;SDS011;57767;42.068;24.752;2023-10-31T05:46:47;13.85;;;7.50;;
70342;SDS011;57767;42.068;24.752;2023-10-31T05:47:48;10.95;;;7.30;;
70342;SDS011;57767;42.068;24.752;2023-10-31T05:48:50;14.07;;;7.38;;
70342;SDS011;57767;42.068;24.752;2023-10-31T05:49:52;11.02;;;6.82;;
70342;SDS011;57767;42.068;24.752;2023-10-31T05:50:54;10.93;;;6.25;;
70342;SDS011;57767;42.068;24.752;2023-10-31T05:51:55;9.63;;;6.53;;
70342;SDS011;57767;42.068;24.752;2023-10-31T05:52:57;11.10;;;6.50;;
70342;SDS011;57767;42.068;24.752;2023-10-31T05:53:59;13.93;;;6.72;;
70342;SDS011;57767;42.068;24.752;2023-10-31T05:55:01;12.10;;;5.82;;
70342;SDS011;57767;42.068;24.752;2023-10-31T05:56:03;9.05;;;6.22;;
70342;SDS011;57767;42.068;24.752;2023-10-31T05:57:05;12.40;;;5.70;;
70342;SDS011;57767;42.068;24.752;2023-10-31T05:58:07;13.30;;;6.55;;
70342;SDS011;57767;42.068;24.752;2023-10-31T05:59:08;10.45;;;5.95;;
70342;SDS011;57767;42.068;24.752;2023-10-31T06:00:10;11.15;;;6.28;;
70342;SDS011;57767;42.068;24.752;2023-10-31T06:01:12;10.05;;;5.90;;
70342;SDS011;57767;42.068;24.752;2023-10-31T06:02:14;10.38;;;5.88;;
70342;SDS011;57767;42.068;24.752;2023-10-31T06:03:16;11.88;;;5.78;;
70342;SDS011;57767;42.068;24.752;2023-10-31T06:04:18;13.63;;;6.18;;
70342;SDS011;57767;42.068;24.752;2023-10-31T06:05:19;11.65;;;6.78;;